Time;durP1;ratioP1;P1;durP2;ratioP2;P2;SDS_P1;SDS_P2;PMS_P1;PMS_P2;Temp;Humidity;BMP_temperature;BMP_pressure;BME280_temperature;BME280_humidity;BME280_pressure;Samples;Min_cycle;Max_cycle;Signal;HPM_P1;HPM_P2
2021/01/23 00:01:07;;;;;;;10.83;9.47;;;;;;;1.13;88.20;98626.03;4990855;28;20347;-76
2021/01/23 00:03:32;;;;;;;12.13;10.47;;;;;;;0.82;88.53;98630.31;4991086;28;20188;-76
2021/01/23 00:05:58;;;;;;;11.77;10.53;;;;;;;0.79;88.66;98620.16;4990775;28;20169;-76
2021/01/23 00:08:23;;;;;;;12.80;11.67;;;;;;;0.69;89.40;98621.09;4990446;28;20696;-77
2021/01/23 00:10:48;;;;;;;13.20;11.97;;;;;;;0.80;89.20;98621.75;4992161;28;20193;-76
2021/01/23 00:13:14;;;;;;;12.57;11.33;;;;;;;1.06;88.82;98614.09;4994406;28;20185;-77
2021/01/23 00:15:39;;;;;;;11.50;10.50;;;;;;;1.17;88.20;98618.22;4994327;28;20235;-76
2021/01/23 00:18:04;;;;;;;11.53;10.27;;;;;;;1.25;87.43;98622.09;4994250;28;20181;-77
2021/01/23 00:20:30;;;;;;;10.83;9.57;;;;;;;1.30;87.07;98622.00;4994190;28;20178;-77
2021/01/23 00:22:55;;;;;;;10.47;9.57;;;;;;;1.34;86.73;98613.06;4994433;28;20268;-77
2021/01/23 00:25:20;;;;;;;10.77;9.87;;;;;;;1.14;87.21;98613.41;4993981;28;20192;-77
2021/01/23 00:27:46;;;;;;;11.37;10.37;;;;;;;1.11;87.69;98608.63;4993711;28;20669;-77
2021/01/23 00:30:11;;;;;;;10.80;9.87;;;;;;;1.28;87.28;98611.53;4994251;28;20189;-77
2021/01/23 00:32:37;;;;;;;10.87;9.90;;;;;;;1.35;86.63;98603.91;4993944;28;20173;-77
2021/01/23 00:35:03;;;;;;;10.97;9.70;;;;;;;1.24;86.71;98599.78;4994136;28;20214;-77
2021/01/23 00:37:28;;;;;;;12.03;10.90;;;;;;;0.91;87.76;98600.88;4993613;28;20712;-77
2021/01/23 00:39:54;;;;;;;11.43;10.43;;;;;;;0.94;88.64;98594.91;4993890;28;20181;-77
2021/01/23 00:42:19;;;;;;;12.30;11.07;;;;;;;1.14;88.40;98599.94;4993850;28;20181;-77
2021/01/23 00:44:44;;;;;;;11.60;10.53;;;;;;;1.13;87.75;98599.16;4993779;28;20230;-77
2021/01/23 00:47:10;;;;;;;12.10;11.00;;;;;;;1.00;87.60;98605.28;4993364;28;20312;-79
2021/01/23 00:49:35;;;;;;;11.10;9.97;;;;;;;0.93;88.20;98599.50;4993308;28;20447;-77
2021/01/23 00:52:00;;;;;;;12.53;11.10;;;;;;;0.87;88.40;98600.69;4993679;28;20201;-77
2021/01/23 00:54:26;;;;;;;11.53;10.53;;;;;;;0.79;88.80;98598.66;4976217;28;20228;-78
2021/01/23 00:56:51;;;;;;;12.73;11.53;;;;;;;0.73;89.27;98610.59;4993192;28;20633;-78
2021/01/23 00:59:16;;;;;;;13.60;12.27;;;;;;;0.74;89.62;98607.59;4993700;28;20185;-79
2021/01/23 01:01:42;;;;;;;18.03;13.23;;;;;;;0.82;90.26;98609.59;4993527;28;20548;-78
2021/01/23 01:04:07;;;;;;;14.73;12.90;;;;;;;0.89;90.08;98611.94;4993489;28;20174;-78
2021/01/23 01:06:32;;;;;;;14.13;12.90;;;;;;;0.80;89.99;98613.69;4993084;28;20556;-78
2021/01/23 01:08:58;;;;;;;14.53;13.17;;;;;;;0.93;90.03;98615.63;4993338;28;20180;-79
2021/01/23 01:11:23;;;;;;;14.07;12.77;;;;;;;1.04;90.38;98611.69;4993628;28;20180;-78
2021/01/23 01:13:48;;;;;;;15.73;14.43;;;;;;;0.91;90.44;98615.13;4996344;28;20181;-78
2021/01/23 01:16:14;;;;;;;13.63;12.33;;;;;;;1.11;90.25;98611.31;4994802;28;20188;-78
2021/01/23 01:18:39;;;;;;;13.53;12.33;;;;;;;1.11;89.05;98614.00;4993793;28;20177;-78
2021/01/23 01:21:05;;;;;;;13.83;12.30;;;;;;;1.08;88.98;98609.22;4993257;28;20183;-78
2021/01/23 01:23:30;;;;;;;13.13;11.93;;;;;;;1.08;89.11;98611.91;4992595;28;20205;-78
2021/01/23 01:25:55;;;;;;;17.93;13.37;;;;;;;1.07;88.95;98613.78;4993072;28;20200;-79
2021/01/23 01:28:21;;;;;;;16.00;12.57;;;;;;;1.14;89.13;98624.94;4993093;28;20185;-78
2021/01/23 01:30:46;;;;;;;13.60;12.40;;;;;;;1.08;89.25;98612.69;4992979;28;20177;-79
2021/01/23 01:33:11;;;;;;;13.50;12.23;;;;;;;1.25;89.44;98620.22;4992842;28;20625;-79
2021/01/23 01:35:37;;;;;;;12.73;11.60;;;;;;;1.34;88.96;98614.97;4992943;28;20185;-79
2021/01/23 01:38:02;;;;;;;12.93;11.93;;;;;;;1.38;88.14;98615.97;4992474;28;20224;-78
2021/01/23 01:40:28;;;;;;;12.30;11.30;;;;;;;1.40;88.13;98611.88;4992844;28;20180;-79
2021/01/23 01:42:56;;;;;;;14.43;12.93;;;;;;;1.34;88.31;98614.97;4992866;28;20177;-78
2021/01/23 01:45:21;;;;;;;13.10;11.80;;;;;;;1.37;88.84;98617.06;4992720;28;20260;-79
2021/01/23 01:47:47;;;;;;;13.27;11.70;;;;;;;1.53;88.38;98618.38;4992287;28;20602;-78
2021/01/23 01:50:13;;;;;;;12.73;11.50;;;;;;;1.59;87.71;98613.69;5017965;23;20229;-73
2021/01/23 01:52:42;;;;;;;12.47;11.33;;;;;;;1.42;86.96;98616.97;5015336;28;20219;-72
2021/01/23 01:55:08;;;;;;;11.47;10.43;;;;;;;1.24;87.21;98613.22;5012095;28;20187;-73
2021/01/23 01:57:34;;;;;;;12.03;10.70;;;;;;;1.22;87.39;98606.56;5018805;28;20198;-72
2021/01/23 01:59:59;;;;;;;12.37;11.17;;;;;;;1.18;87.93;98611.75;5032128;28;20509;-72
2021/01/23 02:02:24;;;;;;;13.13;11.67;;;;;;;1.16;88.32;98603.97;5030561;28;20233;-72
2021/01/23 02:05:07;;;;;;;14.97;12.13;;;;;;;1.15;88.14;98601.53;5031888;28;20688;-72
2021/01/23 02:07:52;;;;;;;13.90;12.60;;;;;;;1.21;88.19;98604.97;5031437;28;20836;-72
2021/01/23 02:10:33;;;;;;;14.07;12.57;;;;;;;0.88;89.09;98613.84;5031313;28;20219;-72
2021/01/23 02:13:14;;;;;;;14.23;12.73;;;;;;;0.92;89.90;98619.41;5032324;28;20165;-72
2021/01/23 02:15:45;;;;;;;13.83;12.53;;;;;;;1.13;89.38;98615.28;5031817;28;20480;-73
2021/01/23 02:18:12;;;;;;;13.27;12.07;;;;;;;1.28;89.21;98618.81;5031914;28;20179;-72
2021/01/23 02:21:06;;;;;;;12.73;11.43;;;;;;;1.31;89.01;98616.34;5031970;28;20741;-72
2021/01/23 02:23:37;;;;;;;12.60;11.60;;;;;;;1.24;89.21;98624.00;5029577;28;20168;-72
2021/01/23 02:26:36;;;;;;;13.47;12.17;;;;;;;1.39;88.58;98622.94;5011628;28;20161;-72
2021/01/23 02:29:14;;;;;;;11.97;10.87;;;;;;;1.31;87.71;98619.03;5010677;28;20185;-72
2021/01/23 02:31:47;;;;;;;13.63;11.27;;;;;;;1.21;87.54;98619.22;5011883;28;20533;-72
2021/01/23 02:34:16;;;;;;;13.67;12.43;;;;;;;1.19;87.89;98635.66;5011468;28;20411;-73
2021/01/23 02:36:43;;;;;;;13.13;12.03;;;;;;;1.20;88.29;98633.75;5009722;28;20423;-72
2021/01/23 02:39:10;;;;;;;15.40;13.90;;;;;;;0.84;89.73;98637.00;5011404;28;20176;-72
2021/01/23 02:41:35;;;;;;;16.27;14.90;;;;;;;0.66;90.45;98640.50;5011588;28;20474;-73
2021/01/23 02:44:01;;;;;;;16.17;14.47;;;;;;;0.84;91.05;98633.50;5011376;28;20668;-73
2021/01/23 02:46:26;;;;;;;15.53;14.03;;;;;;;0.98;90.54;98638.94;5010799;28;20192;-73
2021/01/23 02:48:52;;;;;;;14.53;13.27;;;;;;;1.19;90.14;98634.84;5011364;28;20650;-73
2021/01/23 02:51:26;;;;;;;14.37;13.17;;;;;;;1.19;89.61;98643.72;5010490;28;20639;-72
2021/01/23 02:53:56;;;;;;;14.73;12.03;;;;;;;1.10;89.28;98645.47;5011859;28;20489;-72
2021/01/23 02:56:24;;;;;;;21.37;17.37;;;;;;;1.06;89.48;98647.16;5009579;28;20275;-73
2021/01/23 02:58:51;;;;;;;18.93;14.90;;;;;;;1.18;89.82;98639.44;5011086;28;20451;-72
2021/01/23 03:01:21;;;;;;;18.17;14.70;;;;;;;1.23;89.37;98641.22;5011241;28;20455;-72
2021/01/23 03:03:49;;;;;;;16.40;14.80;;;;;;;1.21;89.02;98638.03;5010161;28;20440;-73
2021/01/23 03:06:15;;;;;;;16.53;13.23;;;;;;;1.22;89.02;98641.53;5011140;28;20168;-72
2021/01/23 03:08:43;;;;;;;16.90;15.40;;;;;;;0.98;89.85;98630.88;5011856;28;20506;-72
2021/01/23 03:11:09;;;;;;;15.27;13.87;;;;;;;0.98;90.20;98641.63;5011276;28;20172;-73
2021/01/23 03:13:35;;;;;;;17.67;16.00;;;;;;;0.79;90.84;98641.66;5011380;28;20947;-72
2021/01/23 03:16:00;;;;;;;18.93;16.93;;;;;;;0.64;91.04;98647.25;5011268;28;20423;-73
2021/01/23 03:18:25;;;;;;;22.40;17.10;;;;;;;0.69;91.16;98649.84;5010799;28;20176;-72
2021/01/23 03:20:50;;;;;;;18.40;16.50;;;;;;;0.91;91.40;98649.28;5010074;28;20180;-72
2021/01/23 03:23:16;;;;;;;17.10;15.70;;;;;;;1.08;90.64;98647.66;5011772;28;20173;-72
2021/01/23 03:25:41;;;;;;;19.43;15.37;;;;;;;1.21;90.23;98653.38;5011428;28;20169;-72
2021/01/23 03:28:07;;;;;;;17.97;15.23;;;;;;;1.30;89.75;98638.97;5010988;28;20247;-72
2021/01/23 03:30:32;;;;;;;16.27;14.83;;;;;;;1.26;88.93;98635.25;5011937;28;20177;-72
2021/01/23 03:32:59;;;;;;;16.37;14.83;;;;;;;1.23;88.67;98632.34;5012915;28;20537;-72
2021/01/23 03:35:24;;;;;;;15.50;13.97;;;;;;;1.16;88.56;98641.63;5011055;28;20187;-72
2021/01/23 03:37:50;;;;;;;14.93;13.43;;;;;;;1.12;88.82;98645.16;5009987;28;20427;-72
2021/01/23 03:40:15;;;;;;;16.00;14.63;;;;;;;1.08;89.24;98642.28;5010125;28;20196;-72
2021/01/23 03:42:41;;;;;;;16.33;14.77;;;;;;;1.06;89.35;98646.34;5010917;28;20181;-72
2021/01/23 03:45:08;;;;;;;18.47;15.23;;;;;;;1.05;89.24;98655.50;5011193;28;20264;-72
2021/01/23 03:47:34;;;;;;;18.33;15.67;;;;;;;0.99;89.30;98652.09;5020567;28;20310;-72
2021/01/23 03:49:59;;;;;;;15.27;13.77;;;;;;;0.97;89.32;98654.28;5033654;28;20968;-72
2021/01/23 03:52:24;;;;;;;16.10;14.57;;;;;;;0.92;89.88;98654.34;5034207;28;20278;-72
2021/01/23 03:54:50;;;;;;;19.13;16.77;;;;;;;0.89;90.16;98650.38;5034334;28;20176;-72
2021/01/23 03:57:15;;;;;;;16.47;14.97;;;;;;;0.95;90.22;98650.28;5033685;28;20555;-72
2021/01/23 03:59:40;;;;;;;17.70;16.00;;;;;;;0.98;90.25;98650.50;5034118;28;20180;-72
2021/01/23 04:02:06;;;;;;;16.93;15.20;;;;;;;0.99;90.42;98648.59;5034120;28;20183;-72
2021/01/23 04:04:31;;;;;;;20.40;15.33;;;;;;;1.02;90.57;98642.66;5032659;28;20693;-72
2021/01/23 04:06:57;;;;;;;16.57;14.90;;;;;;;1.14;90.70;98643.78;5033393;28;20262;-72
2021/01/23 04:09:23;;;;;;;28.30;15.73;;;;;;;1.38;90.07;98638.28;5033980;28;20176;-72
2021/01/23 04:11:49;;;;;;;18.90;17.00;;;;;;;1.59;88.98;98638.72;5033969;28;20433;-72
2021/01/23 04:14:14;;;;;;;15.00;13.43;;;;;;;1.58;88.55;98637.09;5033884;28;20182;-72
2021/01/23 04:16:39;;;;;;;21.27;18.43;;;;;;;1.60;88.48;98631.47;5033231;28;20183;-72
2021/01/23 04:19:05;;;;;;;20.67;18.07;;;;;;;1.63;88.21;98642.41;5032504;28;20532;-72
2021/01/23 04:21:31;;;;;;;14.80;12.97;;;;;;;1.58;88.10;98647.06;5033766;28;20172;-72
2021/01/23 04:23:56;;;;;;;24.97;16.57;;;;;;;1.61;88.05;98650.00;5032377;28;20176;-72
2021/01/23 04:26:22;;;;;;;17.87;15.87;;;;;;;1.53;88.26;98658.75;5033001;28;20199;-72
2021/01/23 04:28:47;;;;;;;14.50;13.10;;;;;;;1.41;88.24;98643.06;5033671;28;20396;-72
2021/01/23 04:31:13;;;;;;;15.23;13.70;;;;;;;1.29;88.71;98647.31;5033672;28;20689;-72
2021/01/23 04:33:38;;;;;;;15.73;14.00;;;;;;;1.16;89.25;98646.19;5032240;28;20400;-72
2021/01/23 04:36:05;;;;;;;15.37;13.77;;;;;;;1.08;89.54;98649.53;5033282;28;20180;-74
2021/01/23 04:38:31;;;;;;;15.53;14.07;;;;;;;1.07;90.07;98648.75;5033354;28;20172;-72
2021/01/23 04:40:57;;;;;;;16.57;14.90;;;;;;;1.14;90.15;98651.03;5033408;28;20446;-72
2021/01/23 04:43:23;;;;;;;15.00;13.70;;;;;;;1.19;90.32;98659.84;5033762;28;20172;-72
2021/01/23 04:45:49;;;;;;;17.33;14.10;;;;;;;1.25;90.44;98649.78;5033336;28;20418;-72
2021/01/23 04:48:17;;;;;;;16.23;14.07;;;;;;;1.27;90.33;98647.59;5031368;28;20473;-72
2021/01/23 04:50:44;;;;;;;15.97;14.33;;;;;;;1.25;90.33;98646.31;5032420;28;20582;-72
2021/01/23 04:53:09;;;;;;;16.83;14.57;;;;;;;1.31;90.10;98639.78;5031807;28;20179;-72
2021/01/23 04:55:35;;;;;;;20.57;16.03;;;;;;;1.32;89.60;98646.75;5033086;28;20245;-72
2021/01/23 04:58:00;;;;;;;16.83;14.30;;;;;;;1.34;89.56;98647.25;5029937;28;20186;-72
2021/01/23 05:00:25;;;;;;;17.60;15.07;;;;;;;1.38;89.80;98645.56;5032969;28;20203;-72
2021/01/23 05:03:03;;;;;;;17.10;15.37;;;;;;;1.41;89.65;98645.75;5032839;28;20587;-72
2021/01/23 05:05:29;;;;;;;18.80;14.80;;;;;;;1.43;89.47;98638.19;5032876;28;20678;-72
2021/01/23 05:08:05;;;;;;;17.93;16.07;;;;;;;1.34;89.44;98631.91;5032231;28;20306;-72
2021/01/23 05:10:31;;;;;;;17.63;14.83;;;;;;;1.18;88.97;98639.44;5032906;28;20226;-72
2021/01/23 05:12:58;;;;;;;15.63;14.23;;;;;;;1.05;89.23;98628.63;5032713;28;20184;-72
2021/01/23 05:15:25;;;;;;;16.83;13.97;;;;;;;0.94;89.68;98629.88;5032905;28;20202;-72
2021/01/23 05:17:53;;;;;;;15.47;13.87;;;;;;;0.84;89.92;98628.13;5032296;28;20187;-72
2021/01/23 05:20:37;;;;;;;26.37;16.77;;;;;;;0.98;90.85;98634.34;5032903;28;20430;-72
2021/01/23 05:23:07;;;;;;;20.23;14.93;;;;;;;1.02;90.81;98632.69;5032595;28;20994;-72
2021/01/23 05:25:34;;;;;;;21.97;17.17;;;;;;;1.24;90.65;98629.38;5032269;28;20430;-72
2021/01/23 05:28:00;;;;;;;28.80;18.27;;;;;;;1.49;89.24;98620.88;5031719;28;20496;-72
2021/01/23 05:30:39;;;;;;;26.63;19.17;;;;;;;1.60;88.88;98618.00;5032393;28;20525;-72
2021/01/23 05:33:06;;;;;;;24.03;18.90;;;;;;;1.68;88.51;98631.56;5031008;28;20827;-72
2021/01/23 05:35:32;;;;;;;26.47;19.50;;;;;;;1.71;87.62;98630.16;5030937;28;20563;-72
2021/01/23 05:37:58;;;;;;;20.00;17.93;;;;;;;1.75;87.74;98629.28;5031910;28;20427;-72
2021/01/23 05:40:30;;;;;;;21.47;18.33;;;;;;;1.76;87.38;98632.78;5032086;28;20419;-72
2021/01/23 05:42:56;;;;;;;20.70;18.53;;;;;;;1.67;87.62;98629.16;5032284;28;20262;-72
2021/01/23 05:45:22;;;;;;;21.47;18.37;;;;;;;1.81;87.75;98635.34;5032099;28;20426;-72
2021/01/23 05:47:47;;;;;;;18.97;17.03;;;;;;;1.85;87.35;98641.72;5031426;28;20211;-73
2021/01/23 05:50:12;;;;;;;26.43;18.17;;;;;;;1.84;87.09;98642.03;5031358;28;20271;-73
2021/01/23 05:52:38;;;;;;;19.63;17.60;;;;;;;1.75;87.55;98642.75;5032142;28;20187;-72
2021/01/23 05:55:05;;;;;;;23.03;18.13;;;;;;;1.64;87.53;98640.53;5031887;28;20172;-73
2021/01/23 05:57:32;;;;;;;20.27;18.20;;;;;;;1.42;88.27;98641.97;5030187;28;20211;-72
2021/01/23 05:59:58;;;;;;;39.30;27.57;;;;;;;1.53;87.89;98642.59;5031709;28;20255;-72
2021/01/23 06:02:24;;;;;;;21.53;19.20;;;;;;;1.29;88.83;98642.72;5031886;28;20259;-72
2021/01/23 06:04:51;;;;;;;19.77;17.97;;;;;;;1.33;88.59;98645.66;5014878;28;20227;-72
2021/01/23 06:07:44;;;;;;;21.60;18.63;;;;;;;1.69;88.26;98637.72;5011448;28;20231;-72
2021/01/23 06:10:22;;;;;;;18.57;16.60;;;;;;;1.84;87.25;98650.91;5011801;28;20258;-72
2021/01/23 06:12:54;;;;;;;23.77;16.87;;;;;;;1.86;86.84;98647.91;5012052;28;20795;-72
2021/01/23 06:15:35;;;;;;;16.20;14.50;;;;;;;2.01;86.03;98648.41;5010492;28;20303;-72
2021/01/23 06:18:22;;;;;;;18.03;16.20;;;;;;;2.07;85.72;98636.47;5011287;28;20428;-72
2021/01/23 06:20:50;;;;;;;21.40;11.03;;;;;;;2.09;85.52;98645.03;5011681;28;20411;-72
2021/01/23 06:23:17;;;;;;;14.00;12.03;;;;;;;2.11;85.45;98633.97;5011813;28;20173;-72
2021/01/23 06:25:49;;;;;;;17.47;15.23;;;;;;;2.13;85.31;98637.16;5010318;28;20466;-72
2021/01/23 06:28:35;;;;;;;19.20;15.70;;;;;;;2.18;85.28;98639.75;5011187;28;20430;-71
2021/01/23 06:31:23;;;;;;;27.23;16.90;;;;;;;2.20;85.20;98644.84;5007454;28;20463;-72
2021/01/23 06:33:49;;;;;;;16.40;14.77;;;;;;;2.21;84.94;98655.31;5011561;28;20173;-72
2021/01/23 06:36:18;;;;;;;16.80;15.20;;;;;;;2.20;85.03;98656.41;5010961;28;20180;-72
2021/01/23 06:39:07;;;;;;;18.77;16.93;;;;;;;2.23;85.04;98663.09;5011561;28;20636;-72
2021/01/23 06:41:37;;;;;;;21.70;17.33;;;;;;;2.21;84.92;98659.91;5011411;28;20478;-72
2021/01/23 06:44:21;;;;;;;19.07;15.63;;;;;;;2.27;84.96;98664.88;5011550;28;20259;-72
2021/01/23 06:46:49;;;;;;;17.87;16.37;;;;;;;2.22;85.04;98664.19;5010874;28;20277;-72
2021/01/23 06:49:14;;;;;;;18.30;16.50;;;;;;;2.28;84.86;98666.47;5011106;28;20180;-71
2021/01/23 06:51:43;;;;;;;18.10;16.40;;;;;;;2.26;84.77;98662.50;5009687;28;20192;-72
2021/01/23 06:54:09;;;;;;;19.13;16.67;;;;;;;2.30;84.87;98661.56;5011766;28;20168;-72
2021/01/23 06:56:35;;;;;;;26.77;16.70;;;;;;;2.29;85.02;98667.28;5011028;28;20518;-72
2021/01/23 06:59:00;;;;;;;18.60;16.57;;;;;;;2.33;84.57;98665.59;5011444;28;20200;-73
2021/01/23 07:01:25;;;;;;;17.80;16.23;;;;;;;2.30;84.25;98664.28;5012153;28;20204;-72
2021/01/23 07:03:51;;;;;;;17.83;16.23;;;;;;;2.32;84.48;98667.50;5016491;28;20570;-72
2021/01/23 07:06:28;;;;;;;22.73;15.77;;;;;;;2.34;84.67;98659.09;5017827;28;20283;-72
2021/01/23 07:08:53;;;;;;;21.00;15.70;;;;;;;2.34;84.04;98654.50;5011803;28;20264;-72
2021/01/23 07:11:21;;;;;;;20.43;18.47;;;;;;;2.08;85.09;98656.13;5011232;28;20700;-72
2021/01/23 07:14:02;;;;;;;19.50;17.53;;;;;;;1.90;85.86;98648.94;5011043;28;20183;-73
2021/01/23 07:16:29;;;;;;;19.80;17.90;;;;;;;1.71;86.46;98647.09;5010754;28;20168;-72
2021/01/23 07:19:02;;;;;;;21.20;18.30;;;;;;;1.73;86.88;98644.09;5011064;28;20185;-72
2021/01/23 07:21:31;;;;;;;20.13;17.97;;;;;;;1.81;86.51;98638.06;5012252;28;20184;-72
2021/01/23 07:23:56;;;;;;;19.33;17.33;;;;;;;1.72;86.66;98637.94;5013755;28;20183;-72
2021/01/23 07:26:23;;;;;;;22.30;18.73;;;;;;;1.57;87.47;98624.75;5014511;28;20181;-72
2021/01/23 07:28:56;;;;;;;24.60;20.03;;;;;;;1.35;87.86;98625.44;5013714;28;20474;-72
2021/01/23 07:31:24;;;;;;;45.93;27.87;;;;;;;1.41;88.01;98621.53;5014806;28;20423;-72
2021/01/23 07:33:50;;;;;;;39.47;25.17;;;;;;;1.34;88.39;98614.97;5014775;28;20230;-72
2021/01/23 07:36:27;;;;;;;32.30;22.27;;;;;;;1.46;88.34;98623.38;5014416;28;20419;-72
2021/01/23 07:38:52;;;;;;;24.50;20.10;;;;;;;1.49;88.16;98617.38;5014413;28;20643;-72
2021/01/23 07:41:18;;;;;;;21.40;19.00;;;;;;;1.53;88.25;98618.38;5014567;28;20422;-71
2021/01/23 07:43:44;;;;;;;25.40;20.43;;;;;;;1.55;88.43;98608.09;5014536;28;20809;-72
2021/01/23 07:46:10;;;;;;;26.97;20.27;;;;;;;1.59;88.53;98619.91;5014228;28;20709;-72
2021/01/23 07:48:40;;;;;;;22.37;20.03;;;;;;;1.57;88.27;98611.28;5014654;28;20204;-72
2021/01/23 07:51:05;;;;;;;21.33;19.03;;;;;;;1.62;88.01;98605.84;5013637;28;20431;-72
2021/01/23 07:53:31;;;;;;;28.43;19.83;;;;;;;1.72;87.78;98592.16;5014145;28;20514;-72
2021/01/23 07:55:56;;;;;;;25.70;20.37;;;;;;;1.73;88.04;98596.44;5014361;28;20189;-73
2021/01/23 07:58:21;;;;;;;20.97;18.97;;;;;;;1.82;87.59;98590.38;5024167;28;20191;-73
2021/01/23 08:00:47;;;;;;;24.47;20.03;;;;;;;1.88;87.20;98590.00;5033847;28;20581;-73
2021/01/23 08:03:12;;;;;;;21.40;19.43;;;;;;;1.79;87.28;98589.09;5033844;28;20215;-73
2021/01/23 08:05:41;;;;;;;21.17;19.23;;;;;;;1.61;87.68;98593.47;5033864;28;20259;-73
2021/01/23 08:08:07;;;;;;;28.00;20.20;;;;;;;1.47;88.36;98592.66;5033315;28;20247;-73
2021/01/23 08:10:35;;;;;;;30.17;21.60;;;;;;;1.50;88.39;98600.13;5034072;28;20199;-74
2021/01/23 08:13:03;;;;;;;25.20;22.27;;;;;;;1.78;88.49;98595.56;5032783;28;20565;-77
2021/01/23 08:15:36;;;;;;;30.57;23.30;;;;;;;1.89;87.80;98598.88;5033611;28;20433;-73
2021/01/23 08:18:15;;;;;;;24.77;21.80;;;;;;;1.97;87.55;98593.56;5033312;28;20451;-74
2021/01/23 08:20:40;;;;;;;29.83;22.07;;;;;;;1.97;87.14;98596.25;5032032;28;20183;-74
2021/01/23 08:23:07;;;;;;;23.40;21.00;;;;;;;1.97;86.70;98598.16;5033631;28;20423;-74
2021/01/23 08:25:54;;;;;;;23.13;20.83;;;;;;;2.08;86.53;98599.56;5033437;28;20253;-74
2021/01/23 08:28:32;;;;;;;22.37;20.07;;;;;;;2.03;86.71;98596.97;5033093;28;20824;-74
2021/01/23 08:31:30;;;;;;;27.13;19.97;;;;;;;2.03;86.63;98597.78;5032949;28;20176;-74
2021/01/23 08:33:56;;;;;;;22.70;17.63;;;;;;;2.07;86.14;98601.44;5010214;28;20430;-73
2021/01/23 08:36:26;;;;;;;19.73;17.93;;;;;;;2.02;86.26;98601.53;5032992;28;20322;-73
2021/01/23 08:39:04;;;;;;;19.37;17.37;;;;;;;2.02;86.23;98598.84;5033067;28;20512;-74
2021/01/23 08:41:30;;;;;;;19.57;17.77;;;;;;;2.04;86.16;98596.66;5033038;28;20187;-74
2021/01/23 08:43:56;;;;;;;21.00;18.50;;;;;;;2.11;85.95;98598.94;5033214;28;20184;-74
2021/01/23 08:46:21;;;;;;;19.63;16.10;;;;;;;2.15;85.47;98599.94;5032844;28;20188;-74
2021/01/23 08:48:48;;;;;;;19.93;18.03;;;;;;;2.06;85.60;98601.75;5033025;28;20419;-74
2021/01/23 08:51:13;;;;;;;17.87;16.13;;;;;;;2.14;85.28;98594.84;5031999;28;20180;-74
2021/01/23 08:53:39;;;;;;;18.13;16.33;;;;;;;2.11;85.09;98598.16;5032933;28;20797;-73
2021/01/23 08:56:04;;;;;;;17.67;16.07;;;;;;;2.21;84.71;98595.25;5032595;28;20287;-73
2021/01/23 08:58:30;;;;;;;19.50;14.93;;;;;;;2.27;84.04;98596.72;5021114;28;20185;-72
2021/01/23 09:00:55;;;;;;;17.90;14.53;;;;;;;2.33;83.63;98592.84;5013036;28;20626;-72
2021/01/23 09:03:20;;;;;;;14.57;12.37;;;;;;;2.38;83.47;98593.50;5012877;28;20168;-72
2021/01/23 09:05:46;;;;;;;16.33;13.17;;;;;;;2.43;83.08;98606.06;5012955;28;20614;-72
2021/01/23 09:08:11;;;;;;;14.83;13.30;;;;;;;2.48;82.37;98607.88;5012482;28;20220;-72
2021/01/23 09:10:36;;;;;;;11.07;9.40;;;;;;;2.53;82.25;98599.66;5012979;28;20632;-72
2021/01/23 09:13:02;;;;;;;12.43;11.13;;;;;;;2.55;82.05;98608.25;5012829;28;20699;-72
2021/01/23 09:15:27;;;;;;;10.40;9.27;;;;;;;2.57;82.18;98614.91;5012830;28;20656;-72
2021/01/23 09:17:52;;;;;;;13.50;12.30;;;;;;;2.59;82.20;98606.53;5012459;28;20238;-72
2021/01/23 09:20:18;;;;;;;14.60;11.70;;;;;;;2.62;82.22;98614.03;5012794;28;20173;-72
2021/01/23 09:22:43;;;;;;;13.10;11.80;;;;;;;2.67;81.65;98612.00;5011369;28;20177;-72
2021/01/23 09:25:09;;;;;;;13.27;9.43;;;;;;;2.71;81.43;98616.78;5012273;28;20176;-72
2021/01/23 09:27:34;;;;;;;14.13;12.77;;;;;;;2.71;81.41;98616.78;5011979;28;20211;-72
2021/01/23 09:30:00;;;;;;;13.60;12.23;;;;;;;2.75;81.07;98615.88;5012253;28;20543;-71
2021/01/23 09:32:26;;;;;;;12.83;11.70;;;;;;;2.81;80.52;98621.94;5012535;28;20211;-72
2021/01/23 09:34:53;;;;;;;11.57;10.47;;;;;;;2.83;80.33;98625.94;5012318;28;20181;-72
2021/01/23 09:37:25;;;;;;;13.53;12.17;;;;;;;2.87;79.88;98615.31;5011880;28;20173;-71
2021/01/23 09:39:52;;;;;;;12.23;11.00;;;;;;;2.88;80.04;98617.72;5012068;28;20424;-72
2021/01/23 09:42:18;;;;;;;9.23;7.10;;;;;;;2.93;80.19;98614.13;5012111;28;20534;-72
2021/01/23 09:44:43;;;;;;;10.57;9.57;;;;;;;2.97;79.35;98615.88;5011688;28;20419;-72
2021/01/23 09:47:12;;;;;;;12.47;8.17;;;;;;;3.01;78.88;98612.56;5010283;28;20529;-72
2021/01/23 09:49:37;;;;;;;4.77;4.37;;;;;;;3.04;78.25;98623.56;5010690;28;20659;-72
2021/01/23 09:52:03;;;;;;;9.30;7.00;;;;;;;3.09;77.82;98620.75;5012018;28;20518;-72
2021/01/23 09:54:28;;;;;;;3.10;1.97;;;;;;;3.15;77.31;98619.50;5011980;28;20621;-71
2021/01/23 09:56:54;;;;;;;11.93;9.47;;;;;;;3.19;77.51;98615.09;5011421;28;20188;-77
2021/01/23 09:59:20;;;;;;;8.87;8.07;;;;;;;3.24;76.74;98608.78;5030191;28;20258;-73
2021/01/23 10:01:46;;;;;;;10.70;8.80;;;;;;;3.29;77.03;98600.53;5031576;28;20266;-75
2021/01/23 10:04:11;;;;;;;9.90;3.57;;;;;;;3.34;76.56;98605.81;5031265;28;20271;-72
2021/01/23 10:06:37;;;;;;;4.60;3.80;;;;;;;3.36;75.96;98603.63;5030390;28;20684;-81
2021/01/23 10:09:02;;;;;;;4.83;4.40;;;;;;;3.41;75.79;98598.06;5032066;28;20238;-72
2021/01/23 10:11:27;;;;;;;5.10;4.60;;;;;;;3.46;75.96;98610.63;5011845;28;20193;-71
2021/01/23 10:13:54;;;;;;;9.20;8.40;;;;;;;3.52;75.11;98606.72;5000533;28;20182;-71
2021/01/23 10:16:21;;;;;;;6.10;5.10;;;;;;;3.57;74.37;98596.56;5013299;28;20186;-71
2021/01/23 10:18:47;;;;;;;10.27;5.73;;;;;;;3.63;74.14;98601.84;5005980;28;20623;-71
2021/01/23 10:21:12;;;;;;;8.67;7.80;;;;;;;3.68;74.39;98599.78;5011694;28;20215;-71
2021/01/23 10:23:37;;;;;;;8.37;7.53;;;;;;;3.75;74.48;98589.31;5011530;28;20183;-72
2021/01/23 10:26:03;;;;;;;5.53;2.40;;;;;;;3.83;72.93;98604.00;5010202;28;20197;-74
2021/01/23 10:28:29;;;;;;;8.00;6.87;;;;;;;3.88;72.61;98595.72;5010003;28;20216;-72
2021/01/23 10:30:55;;;;;;;8.80;7.13;;;;;;;3.96;72.45;98597.69;5011482;28;20191;-72
2021/01/23 10:33:20;;;;;;;2.97;2.77;;;;;;;4.01;71.82;98594.03;5011483;28;20200;-71
2021/01/23 10:35:46;;;;;;;3.03;2.73;;;;;;;4.03;71.66;98589.09;5024785;28;20685;-71
2021/01/23 10:38:11;;;;;;;8.67;7.00;;;;;;;4.07;71.06;98590.88;5030934;28;20184;-72
2021/01/23 10:40:36;;;;;;;9.43;7.03;;;;;;;4.15;71.75;98587.41;5029908;28;20176;-71
2021/01/23 10:43:02;;;;;;;7.40;6.13;;;;;;;4.22;70.96;98586.94;5031467;28;20654;-71
2021/01/23 10:45:27;;;;;;;2.57;2.37;;;;;;;4.23;70.64;98577.72;5031446;28;20184;-71
2021/01/23 10:47:52;;;;;;;2.50;2.30;;;;;;;4.24;70.49;98575.81;5030742;28;20560;-72
2021/01/23 10:50:18;;;;;;;5.87;4.83;;;;;;;4.23;70.43;98569.63;5028359;28;20176;-72
2021/01/23 10:52:43;;;;;;;8.17;7.47;;;;;;;4.25;71.15;98567.38;5031216;28;20187;-71
2021/01/23 10:55:09;;;;;;;8.43;7.53;;;;;;;4.34;70.62;98560.09;5030812;28;20591;-71
2021/01/23 10:57:34;;;;;;;6.83;5.57;;;;;;;4.34;70.05;98559.28;5030483;28;20172;-71
2021/01/23 11:00:00;;;;;;;7.33;6.60;;;;;;;4.32;70.39;98566.91;5030962;28;20211;-72
2021/01/23 11:02:25;;;;;;;7.07;6.30;;;;;;;4.33;70.59;98558.47;5029887;28;20607;-71
2021/01/23 11:04:50;;;;;;;8.00;7.20;;;;;;;4.36;70.64;98551.66;5029549;28;20179;-73
2021/01/23 11:07:16;;;;;;;8.07;7.20;;;;;;;4.35;70.51;98552.78;5030128;28;20253;-72
2021/01/23 11:09:41;;;;;;;8.00;7.20;;;;;;;4.37;70.74;98555.97;5029445;28;20180;-71
2021/01/23 11:12:07;;;;;;;6.90;5.47;;;;;;;4.37;70.11;98547.84;5030818;28;20176;-71
2021/01/23 11:14:33;;;;;;;7.10;6.40;;;;;;;4.35;70.86;98542.75;5029433;28;20700;-71
2021/01/23 11:17:00;;;;;;;5.60;3.33;;;;;;;4.40;71.16;98544.50;5028878;28;20267;-71
2021/01/23 11:19:25;;;;;;;5.73;5.20;;;;;;;4.42;71.58;98537.66;5014377;28;20291;-71
2021/01/23 11:21:51;;;;;;;11.87;6.20;;;;;;;4.46;71.47;98537.81;5011045;28;20260;-70
2021/01/23 11:24:16;;;;;;;4.23;3.83;;;;;;;4.52;71.41;98531.16;5012534;28;20183;-71
2021/01/23 11:26:41;;;;;;;8.07;7.27;;;;;;;4.51;71.16;98528.78;5030064;28;20206;-71
2021/01/23 11:29:06;;;;;;;9.43;8.37;;;;;;;4.45;71.96;98520.81;5030541;28;20182;-71
2021/01/23 11:31:32;;;;;;;9.57;8.77;;;;;;;4.52;72.65;98523.03;5030714;28;20179;-72